Aeroporto :
LOGIN :

Iscrizione | Disclaimer

   EN    FR    IT 

 










Sommario :    VFR   VFR Marginale   IFR   IFR Intensivo   IFR Molto Intensivo
Visibilità : 
Base nubi : 
>= 8 km
>= 3000ft
5 / 8 km
1000 / 3000 ft
1500m / 5 km
500 / 1000 ft
800 / 1500m
200 / 500 ft
< 800m
< 200 ft
Simboli :   Temporali  Nebbia  Neve Forte  Precipitazioni Forti  Vento > 20 kt
SIGMETs :   Varie  Temporali  Ghiacco  Turbolenza  Onda orograficha  Ceneri Vulcaniche







- Altitudine del aeroporto : -15 ft
- Codice IATA : RTM


EHRD - Rotterdam Zestienhoven

ULTIMO METAR :
  • 180625Z AUTO 19008KT 150V220 9999 SCT007 SCT008 OVC010 16/15 Q1004 TEMPO BKN008

METARs OBSOLETI :
  • 180555Z AUTO 18008KT 160V270 9999 FEW007 16/15 Q1004 NOSIG
  • 180525Z AUTO 19007KT 160V260 9999 -DZ NSC 16/15 Q1004 NOSIG
  • 180455Z AUTO 19008KT 160V220 9999 -DZ FEW011 FEW015CB 16/15 Q1004 REDZ NOSIG
  • 180425Z AUTO 20007KT 9999 -RA FEW015CB 16/15 Q1004 NOSIG
  • 180355Z AUTO 20008KT 170V230 9999 NSC 16/15 Q1004 NOSIG

TAF COR TAF EHRD
Valido dal 18 a 06 ore il 19 a 12 ore UTC


180450Z 1806/1912 20008KT 9999 SCT020
TEMPO 1806/1809 7000 -RA
PROB30
TEMPO 1806/1808 4500 RADZ BKN008
BECMG 1810/1813 24014KT
PROB30
TEMPO 1814/1816 7000 -SHRA SCT018TCU
BECMG 1817/1820 21012KT
PROB30
TEMPO 1904/1912 7000 -SHRA SCT018TCU
BECMG 1908/1911 24016KT
Nessun NOTAM noto per questo aeroporto.



MetMap, La meteo Aeronautica in un colpo d'occhio ! - Copyright ORBIFLY Dicembre 2007 - Disclaimer

ORBIFLY MET'MAP TEAM :

Programmazione e sviluppo : Alexandra Zaïnal
Concezione e sviluppo : Baudouin d'Aumeries
Co-Programmazione e sviluppo : Marc-Olivier Méhu
Supporto tecnico e logistico : Manuel Goepfert
Aiuto per la traduzione : Arnaldo La Scala

Contatto : metmap@orbifly.com




FONTI E CREDITI :

   NOAA